This is the latest recevied weather packets stored in our database for station/object HA2SKA-1. If no packets are shown the sender has not sent any weather packets the latest 10 day(s).
| Time | Temp. | Humidity | Pressure | Rain* | Wind** | Luminosity | Snow |
|---|---|---|---|---|---|---|---|
| 1778004940 | 19.44° C | 51% | 1012.7 hPa | - | - | - | - |
| 1778004040 | 19.44° C | 49% | 1012.8 hPa | - | - | - | - |
| 1778003140 | 20° C | 47% | 1012.7 hPa | - | - | - | - |
| 1778002240 | 20° C | 46% | 1012.7 hPa | - | - | - | - |
| 1778001340 | 20.56° C | 44% | 1012.7 hPa | - | - | - | - |
| 1778000439 | 20.56° C | 43% | 1012.8 hPa | - | - | - | - |
| 1777999539 | 21.11° C | 40% | 1013 hPa | - | - | - | - |
| 1777998639 | 21.67° C | 40% | 1012.9 hPa | - | - | - | - |
| 1777997739 | 21.67° C | 37% | 1013 hPa | - | - | - | - |
| 1777996839 | 22.22° C | 37% | 1012.9 hPa | - | - | - | - |
| 1777995939 | 23.33° C | 35% | 1013.1 hPa | - | - | - | - |
| 1777995039 | 23.33° C | 35% | 1013 hPa | - | - | - | - |
| 1777994139 | 23.33° C | 34% | 1013.2 hPa | - | - | - | - |
| 1777993239 | 24.44° C | 32% | 1013.3 hPa | - | - | - | - |
| 1777992339 | 24.44° C | 32% | 1013.1 hPa | - | - | - | - |
| 1777991439 | 24.44° C | 32% | 1013.1 hPa | - | - | - | - |
| 1777990538 | 25.56° C | 32% | 1013.2 hPa | - | - | - | - |
| 1777989638 | 25.56° C | 31% | 1013.3 hPa | - | - | - | - |
| 1777988738 | 26.11° C | 29% | 1013 hPa | - | - | - | - |
| 1777987838 | 26.11° C | 31% | 1013.1 hPa | - | - | - | - |
| 1777874467 | 20.56° C | 31% | 1020 hPa | - | - | - | - |
| 1777873566 | 20° C | 32% | 1020 hPa | - | - | - | - |
| 1777872666 | 20° C | 32% | 1020.1 hPa | - | - | - | - |
| 1777871766 | 19.44° C | 34% | 1020 hPa | - | - | - | - |
| 1777870866 | 20° C | 31% | 1020 hPa | - | - | - | - |
* Rain since midnight (hover to see other rain measurements)
** Current wind speed in m/s (hover to see current wind gust speed)